LFBA/AGF METAR and TAF weather

Enter ICAO airport designator
Station Type Date Time Source
LFBA METAR 2019/08/22 21:00 UTC NOAA

LFBA 222100Z AUTO 01001KT CAVOK 18/13 Q1021 NOSIG


Station Type Date Time Source
LFBA Decoded METAR 2019/08/22 21:00 UTC NOAA

Station name not available
Aug 22, 2019 - 05:00 PM EDT / 2019.08.22 2100 UTC
Wind: from the N (010 degrees) at 1 MPH (1 KT):0
Visibility: greater than 7 mile(s):0
Temperature: 64 F (18 C)
Dew Point: 55 F (13 C)
Relative Humidity: 72%
Pressure (altimeter): 30.15 in. Hg (1021 hPa)
ob: LFBA 222100Z AUTO 01001KT CAVOK 18/13 Q1021 NOSIG
cycle: 21

Station Type Date Time Source
LFBA TAF 2014/12/22 20:03 UTC NOAA

TAF
AMD TAF
AMD LFBA 222037Z 2220/2224 12007KT 0400 FG VV///
TEMPO 2220/2224 0100 PROB30
TEMPO 2222/2224 FZFG

Example: see airport list